sensor_id;sensor_type;location;lat;lon;timestamp;P1;durP1;ratioP1;P2;durP2;ratioP2
1174;SDS011;576;48.418;10.074;2024-02-14T00:00:07;4.20;;;3.80;;
1174;SDS011;576;48.418;10.074;2024-02-14T00:02:43;4.97;;;3.70;;
1174;SDS011;576;48.418;10.074;2024-02-14T00:05:14;5.10;;;4.50;;
1174;SDS011;576;48.418;10.074;2024-02-14T00:07:42;3.43;;;3.23;;
1174;SDS011;576;48.418;10.074;2024-02-14T00:10:11;3.97;;;3.67;;
1174;SDS011;576;48.418;10.074;2024-02-14T00:12:39;4.17;;;3.43;;
1174;SDS011;576;48.418;10.074;2024-02-14T00:15:07;4.10;;;3.80;;
1174;SDS011;576;48.418;10.074;2024-02-14T00:17:36;3.83;;;3.53;;
1174;SDS011;576;48.418;10.074;2024-02-14T00:20:06;4.13;;;3.83;;
1174;SDS011;576;48.418;10.074;2024-02-14T00:22:39;3.90;;;3.50;;
1174;SDS011;576;48.418;10.074;2024-02-14T00:25:07;4.50;;;4.10;;
1174;SDS011;576;48.418;10.074;2024-02-14T00:27:37;3.50;;;3.30;;
1174;SDS011;576;48.418;10.074;2024-02-14T00:30:06;3.90;;;3.60;;
1174;SDS011;576;48.418;10.074;2024-02-14T00:32:36;4.80;;;4.10;;
1174;SDS011;576;48.418;10.074;2024-02-14T00:35:05;4.03;;;3.63;;
1174;SDS011;576;48.418;10.074;2024-02-14T00:37:34;5.40;;;4.00;;
1174;SDS011;576;48.418;10.074;2024-02-14T00:40:04;4.40;;;3.60;;
1174;SDS011;576;48.418;10.074;2024-02-14T00:42:33;4.27;;;3.87;;
1174;SDS011;576;48.418;10.074;2024-02-14T00:45:03;4.30;;;4.00;;
1174;SDS011;576;48.418;10.074;2024-02-14T00:47:32;4.37;;;3.97;;
1174;SDS011;576;48.418;10.074;2024-02-14T00:50:01;3.83;;;3.53;;
1174;SDS011;576;48.418;10.074;2024-02-14T00:52:29;4.20;;;3.90;;
1174;SDS011;576;48.418;10.074;2024-02-14T00:54:57;4.17;;;3.87;;
1174;SDS011;576;48.418;10.074;2024-02-14T00:57:27;4.93;;;4.17;;
1174;SDS011;576;48.418;10.074;2024-02-14T00:59:56;4.47;;;4.07;;
1174;SDS011;576;48.418;10.074;2024-02-14T01:02:24;4.97;;;4.47;;
1174;SDS011;576;48.418;10.074;2024-02-14T01:04:53;3.83;;;3.53;;
1174;SDS011;576;48.418;10.074;2024-02-14T01:07:21;4.80;;;4.20;;
1174;SDS011;576;48.418;10.074;2024-02-14T01:09:50;5.97;;;4.37;;
1174;SDS011;576;48.418;10.074;2024-02-14T01:12:18;4.20;;;3.90;;
1174;SDS011;576;48.418;10.074;2024-02-14T01:14:48;3.80;;;3.50;;
1174;SDS011;576;48.418;10.074;2024-02-14T01:17:16;3.83;;;3.47;;
1174;SDS011;576;48.418;10.074;2024-02-14T01:19:44;4.10;;;3.80;;
1174;SDS011;576;48.418;10.074;2024-02-14T01:22:13;5.43;;;4.20;;
1174;SDS011;576;48.418;10.074;2024-02-14T01:24:42;4.33;;;3.87;;
1174;SDS011;576;48.418;10.074;2024-02-14T01:27:11;4.20;;;3.90;;
1174;SDS011;576;48.418;10.074;2024-02-14T01:29:39;3.87;;;3.57;;
1174;SDS011;576;48.418;10.074;2024-02-14T01:32:09;4.20;;;3.80;;
1174;SDS011;576;48.418;10.074;2024-02-14T01:34:37;4.17;;;3.87;;
1174;SDS011;576;48.418;10.074;2024-02-14T01:37:05;3.93;;;3.63;;
1174;SDS011;576;48.418;10.074;2024-02-14T01:39:35;4.13;;;3.83;;
1174;SDS011;576;48.418;10.074;2024-02-14T01:42:03;3.87;;;3.57;;
1174;SDS011;576;48.418;10.074;2024-02-14T01:44:33;3.90;;;3.60;;
1174;SDS011;576;48.418;10.074;2024-02-14T01:47:03;4.10;;;3.70;;
1174;SDS011;576;48.418;10.074;2024-02-14T01:49:33;4.27;;;3.87;;
1174;SDS011;576;48.418;10.074;2024-02-14T01:52:03;3.83;;;3.53;;
1174;SDS011;576;48.418;10.074;2024-02-14T01:54:32;3.90;;;3.60;;
1174;SDS011;576;48.418;10.074;2024-02-14T01:57:02;4.10;;;3.80;;
1174;SDS011;576;48.418;10.074;2024-02-14T01:59:32;4.20;;;3.90;;
1174;SDS011;576;48.418;10.074;2024-02-14T02:02:02;4.57;;;4.23;;
1174;SDS011;576;48.418;10.074;2024-02-14T02:04:36;3.70;;;3.40;;
1174;SDS011;576;48.418;10.074;2024-02-14T02:07:04;4.43;;;4.07;;
1174;SDS011;576;48.418;10.074;2024-02-14T02:09:32;4.13;;;3.83;;
1174;SDS011;576;48.418;10.074;2024-02-14T02:12:01;4.43;;;4.07;;
1174;SDS011;576;48.418;10.074;2024-02-14T02:14:33;6.00;;;3.77;;
1174;SDS011;576;48.418;10.074;2024-02-14T02:17:01;4.10;;;3.70;;
1174;SDS011;576;48.418;10.074;2024-02-14T02:19:33;4.13;;;3.83;;
1174;SDS011;576;48.418;10.074;2024-02-14T02:22:03;4.80;;;4.40;;
1174;SDS011;576;48.418;10.074;2024-02-14T02:24:33;4.20;;;3.90;;
1174;SDS011;576;48.418;10.074;2024-02-14T02:27:02;3.70;;;3.43;;
1174;SDS011;576;48.418;10.074;2024-02-14T02:29:31;4.03;;;3.73;;
1174;SDS011;576;48.418;10.074;2024-02-14T02:32:00;3.80;;;3.50;;
1174;SDS011;576;48.418;10.074;2024-02-14T02:34:28;4.30;;;3.90;;
1174;SDS011;576;48.418;10.074;2024-02-14T02:36:57;4.40;;;4.00;;
1174;SDS011;576;48.418;10.074;2024-02-14T02:39:25;4.27;;;3.93;;
1174;SDS011;576;48.418;10.074;2024-02-14T02:41:55;4.30;;;3.90;;
1174;SDS011;576;48.418;10.074;2024-02-14T02:44:24;4.00;;;3.67;;
1174;SDS011;576;48.418;10.074;2024-02-14T02:46:53;4.33;;;3.93;;
1174;SDS011;576;48.418;10.074;2024-02-14T02:49:22;4.00;;;3.70;;
1174;SDS011;576;48.418;10.074;2024-02-14T02:51:50;4.10;;;3.70;;
1174;SDS011;576;48.418;10.074;2024-02-14T02:54:18;3.87;;;3.57;;
1174;SDS011;576;48.418;10.074;2024-02-14T02:56:47;3.53;;;3.23;;
1174;SDS011;576;48.418;10.074;2024-02-14T02:59:16;4.23;;;3.93;;
1174;SDS011;576;48.418;10.074;2024-02-14T03:01:45;3.90;;;3.60;;
1174;SDS011;576;48.418;10.074;2024-02-14T03:04:15;4.00;;;3.63;;
1174;SDS011;576;48.418;10.074;2024-02-14T03:06:45;4.20;;;3.80;;
1174;SDS011;576;48.418;10.074;2024-02-14T03:09:13;3.40;;;3.10;;
1174;SDS011;576;48.418;10.074;2024-02-14T03:11:42;2.97;;;2.77;;
1174;SDS011;576;48.418;10.074;2024-02-14T03:14:10;4.17;;;3.60;;
1174;SDS011;576;48.418;10.074;2024-02-14T03:16:39;4.10;;;3.70;;
1174;SDS011;576;48.418;10.074;2024-02-14T03:19:09;3.83;;;3.53;;
1174;SDS011;576;48.418;10.074;2024-02-14T03:21:37;3.77;;;3.43;;
1174;SDS011;576;48.418;10.074;2024-02-14T03:24:05;4.27;;;3.87;;
1174;SDS011;576;48.418;10.074;2024-02-14T03:26:37;4.20;;;3.83;;
1174;SDS011;576;48.418;10.074;2024-02-14T03:29:05;3.73;;;3.43;;
1174;SDS011;576;48.418;10.074;2024-02-14T03:31:34;3.80;;;3.50;;
1174;SDS011;576;48.418;10.074;2024-02-14T03:34:04;3.60;;;3.30;;
1174;SDS011;576;48.418;10.074;2024-02-14T03:36:32;3.27;;;3.07;;
1174;SDS011;576;48.418;10.074;2024-02-14T03:39:01;3.97;;;3.57;;
1174;SDS011;576;48.418;10.074;2024-02-14T03:41:31;3.73;;;3.43;;
1174;SDS011;576;48.418;10.074;2024-02-14T03:44:00;3.60;;;3.30;;
1174;SDS011;576;48.418;10.074;2024-02-14T03:46:29;3.10;;;2.90;;
1174;SDS011;576;48.418;10.074;2024-02-14T03:48:58;3.43;;;3.23;;
1174;SDS011;576;48.418;10.074;2024-02-14T03:51:28;3.77;;;3.43;;
1174;SDS011;576;48.418;10.074;2024-02-14T03:53:56;3.13;;;2.83;;
1174;SDS011;576;48.418;10.074;2024-02-14T03:56:24;3.90;;;3.60;;
1174;SDS011;576;48.418;10.074;2024-02-14T03:58:53;3.33;;;3.13;;
1174;SDS011;576;48.418;10.074;2024-02-14T04:01:21;3.27;;;3.07;;
1174;SDS011;576;48.418;10.074;2024-02-14T04:03:50;4.87;;;4.20;;
1174;SDS011;576;48.418;10.074;2024-02-14T04:06:18;3.90;;;3.60;;
1174;SDS011;576;48.418;10.074;2024-02-14T04:08:48;3.67;;;3.37;;
1174;SDS011;576;48.418;10.074;2024-02-14T04:11:16;3.20;;;2.93;;
1174;SDS011;576;48.418;10.074;2024-02-14T04:13:45;4.50;;;4.20;;
1174;SDS011;576;48.418;10.074;2024-02-14T04:16:13;3.63;;;3.30;;
1174;SDS011;576;48.418;10.074;2024-02-14T04:18:42;3.67;;;3.37;;
1174;SDS011;576;48.418;10.074;2024-02-14T04:21:10;4.37;;;4.07;;
1174;SDS011;576;48.418;10.074;2024-02-14T04:23:39;3.20;;;3.00;;
1174;SDS011;576;48.418;10.074;2024-02-14T04:26:09;3.77;;;3.27;;
1174;SDS011;576;48.418;10.074;2024-02-14T04:28:38;3.17;;;2.97;;
1174;SDS011;576;48.418;10.074;2024-02-14T04:31:07;3.30;;;3.00;;
1174;SDS011;576;48.418;10.074;2024-02-14T04:33:36;3.50;;;3.20;;
1174;SDS011;576;48.418;10.074;2024-02-14T04:36:04;4.40;;;3.70;;
1174;SDS011;576;48.418;10.074;2024-02-14T04:38:33;3.27;;;2.97;;
1174;SDS011;576;48.418;10.074;2024-02-14T04:41:02;3.73;;;3.37;;
1174;SDS011;576;48.418;10.074;2024-02-14T04:43:31;6.40;;;3.40;;
1174;SDS011;576;48.418;10.074;2024-02-14T04:46:00;3.73;;;3.43;;
1174;SDS011;576;48.418;10.074;2024-02-14T04:48:28;3.47;;;3.17;;
1174;SDS011;576;48.418;10.074;2024-02-14T04:50:56;3.00;;;2.80;;
1174;SDS011;576;48.418;10.074;2024-02-14T04:53:26;3.37;;;3.10;;
1174;SDS011;576;48.418;10.074;2024-02-14T04:55:54;3.87;;;3.13;;
1174;SDS011;576;48.418;10.074;2024-02-14T04:58:23;4.37;;;3.97;;
1174;SDS011;576;48.418;10.074;2024-02-14T05:00:54;3.80;;;3.10;;
1174;SDS011;576;48.418;10.074;2024-02-14T05:03:23;3.87;;;3.17;;
1174;SDS011;576;48.418;10.074;2024-02-14T05:05:52;3.07;;;2.87;;
1174;SDS011;576;48.418;10.074;2024-02-14T05:08:21;2.87;;;2.60;;
1174;SDS011;576;48.418;10.074;2024-02-14T05:10:49;3.50;;;3.20;;
1174;SDS011;576;48.418;10.074;2024-02-14T05:13:17;3.53;;;3.23;;
1174;SDS011;576;48.418;10.074;2024-02-14T05:15:46;3.73;;;3.43;;
1174;SDS011;576;48.418;10.074;2024-02-14T05:18:16;3.53;;;3.30;;
1174;SDS011;576;48.418;10.074;2024-02-14T05:20:46;3.97;;;3.57;;
1174;SDS011;576;48.418;10.074;2024-02-14T05:23:14;3.30;;;3.07;;
1174;SDS011;576;48.418;10.074;2024-02-14T05:25:44;3.70;;;3.23;;
1174;SDS011;576;48.418;10.074;2024-02-14T05:28:12;2.80;;;2.57;;
1174;SDS011;576;48.418;10.074;2024-02-14T05:30:41;3.77;;;2.90;;
1174;SDS011;576;48.418;10.074;2024-02-14T05:33:09;3.10;;;2.90;;
1174;SDS011;576;48.418;10.074;2024-02-14T05:35:39;3.53;;;3.10;;
1174;SDS011;576;48.418;10.074;2024-02-14T05:38:08;3.40;;;3.10;;
1174;SDS011;576;48.418;10.074;2024-02-14T05:40:36;3.53;;;3.23;;
1174;SDS011;576;48.418;10.074;2024-02-14T05:43:05;3.53;;;3.23;;
1174;SDS011;576;48.418;10.074;2024-02-14T05:45:34;3.40;;;3.07;;
1174;SDS011;576;48.418;10.074;2024-02-14T05:48:03;3.63;;;3.33;;
1174;SDS011;576;48.418;10.074;2024-02-14T05:50:32;2.90;;;2.70;;
1174;SDS011;576;48.418;10.074;2024-02-14T05:53:01;3.50;;;3.20;;
1174;SDS011;576;48.418;10.074;2024-02-14T05:55:30;3.30;;;3.00;;
1174;SDS011;576;48.418;10.074;2024-02-14T05:57:59;2.97;;;2.77;;
1174;SDS011;576;48.418;10.074;2024-02-14T06:00:27;3.40;;;3.10;;
1174;SDS011;576;48.418;10.074;2024-02-14T06:02:56;4.00;;;3.17;;
1174;SDS011;576;48.418;10.074;2024-02-14T06:05:24;3.47;;;3.17;;
1174;SDS011;576;48.418;10.074;2024-02-14T06:07:52;4.50;;;3.30;;
1174;SDS011;576;48.418;10.074;2024-02-14T06:10:22;3.20;;;2.90;;
1174;SDS011;576;48.418;10.074;2024-02-14T06:12:52;3.43;;;3.13;;
1174;SDS011;576;48.418;10.074;2024-02-14T06:15:20;3.23;;;2.93;;
1174;SDS011;576;48.418;10.074;2024-02-14T06:17:48;3.17;;;2.97;;
1174;SDS011;576;48.418;10.074;2024-02-14T06:20:17;4.47;;;2.90;;
1174;SDS011;576;48.418;10.074;2024-02-14T06:22:45;3.13;;;2.83;;
1174;SDS011;576;48.418;10.074;2024-02-14T06:25:28;2.70;;;2.50;;
1174;SDS011;576;48.418;10.074;2024-02-14T06:27:56;2.80;;;2.60;;
1174;SDS011;576;48.418;10.074;2024-02-14T06:30:24;3.13;;;2.80;;
1174;SDS011;576;48.418;10.074;2024-02-14T06:32:58;2.93;;;2.70;;
1174;SDS011;576;48.418;10.074;2024-02-14T06:35:28;3.53;;;3.10;;
1174;SDS011;576;48.418;10.074;2024-02-14T06:37:58;2.60;;;2.40;;
1174;SDS011;576;48.418;10.074;2024-02-14T06:40:32;4.33;;;3.97;;
1174;SDS011;576;48.418;10.074;2024-02-14T06:43:00;2.70;;;2.50;;
1174;SDS011;576;48.418;10.074;2024-02-14T06:45:29;2.83;;;2.63;;
1174;SDS011;576;48.418;10.074;2024-02-14T06:47:57;5.63;;;3.50;;
1174;SDS011;576;48.418;10.074;2024-02-14T06:50:26;6.13;;;4.60;;
1174;SDS011;576;48.418;10.074;2024-02-14T06:52:55;4.10;;;3.03;;
1174;SDS011;576;48.418;10.074;2024-02-14T06:55:26;8.60;;;4.60;;
1174;SDS011;576;48.418;10.074;2024-02-14T06:57:56;10.00;;;4.80;;
1174;SDS011;576;48.418;10.074;2024-02-14T07:00:25;12.47;;;5.20;;
1174;SDS011;576;48.418;10.074;2024-02-14T07:02:54;6.90;;;3.70;;
1174;SDS011;576;48.418;10.074;2024-02-14T07:05:23;7.83;;;4.53;;
1174;SDS011;576;48.418;10.074;2024-02-14T07:07:52;5.50;;;4.07;;
1174;SDS011;576;48.418;10.074;2024-02-14T07:10:20;5.23;;;4.30;;
1174;SDS011;576;48.418;10.074;2024-02-14T07:12:49;6.97;;;4.87;;
1174;SDS011;576;48.418;10.074;2024-02-14T07:15:18;7.57;;;3.73;;
1174;SDS011;576;48.418;10.074;2024-02-14T07:17:47;7.20;;;4.07;;
1174;SDS011;576;48.418;10.074;2024-02-14T07:20:15;6.97;;;3.90;;
1174;SDS011;576;48.418;10.074;2024-02-14T07:22:44;8.20;;;4.47;;
1174;SDS011;576;48.418;10.074;2024-02-14T07:25:14;5.87;;;4.23;;
1174;SDS011;576;48.418;10.074;2024-02-14T07:27:42;6.53;;;3.80;;
1174;SDS011;576;48.418;10.074;2024-02-14T07:30:12;5.70;;;4.00;;
1174;SDS011;576;48.418;10.074;2024-02-14T07:32:42;5.90;;;3.83;;
1174;SDS011;576;48.418;10.074;2024-02-14T07:35:11;3.97;;;3.33;;
1174;SDS011;576;48.418;10.074;2024-02-14T07:37:40;5.57;;;3.20;;
1174;SDS011;576;48.418;10.074;2024-02-14T07:40:10;4.77;;;3.03;;
1174;SDS011;576;48.418;10.074;2024-02-14T07:42:42;5.30;;;3.37;;
1174;SDS011;576;48.418;10.074;2024-02-14T07:45:10;9.07;;;3.40;;
1174;SDS011;576;48.418;10.074;2024-02-14T07:47:39;4.07;;;3.10;;
1174;SDS011;576;48.418;10.074;2024-02-14T07:50:09;4.47;;;3.30;;
1174;SDS011;576;48.418;10.074;2024-02-14T07:52:41;5.60;;;3.60;;
1174;SDS011;576;48.418;10.074;2024-02-14T07:55:10;2.93;;;2.67;;
1174;SDS011;576;48.418;10.074;2024-02-14T07:57:39;4.50;;;2.87;;
1174;SDS011;576;48.418;10.074;2024-02-14T08:00:09;3.67;;;2.70;;
1174;SDS011;576;48.418;10.074;2024-02-14T08:02:39;6.90;;;3.33;;
1174;SDS011;576;48.418;10.074;2024-02-14T08:05:08;5.03;;;3.37;;
1174;SDS011;576;48.418;10.074;2024-02-14T08:07:37;3.93;;;3.07;;
1174;SDS011;576;48.418;10.074;2024-02-14T08:10:05;3.53;;;2.63;;
1174;SDS011;576;48.418;10.074;2024-02-14T08:12:33;6.50;;;2.80;;
1174;SDS011;576;48.418;10.074;2024-02-14T08:15:02;8.87;;;2.53;;
1174;SDS011;576;48.418;10.074;2024-02-14T08:17:33;4.93;;;2.77;;
1174;SDS011;576;48.418;10.074;2024-02-14T08:20:02;4.63;;;3.30;;
1174;SDS011;576;48.418;10.074;2024-02-14T08:22:33;2.57;;;2.37;;
1174;SDS011;576;48.418;10.074;2024-02-14T08:25:01;3.87;;;3.50;;
1174;SDS011;576;48.418;10.074;2024-02-14T08:27:30;4.77;;;2.90;;
1174;SDS011;576;48.418;10.074;2024-02-14T08:29:58;4.20;;;2.97;;
1174;SDS011;576;48.418;10.074;2024-02-14T08:32:26;2.80;;;2.60;;
1174;SDS011;576;48.418;10.074;2024-02-14T08:34:55;7.07;;;2.90;;
1174;SDS011;576;48.418;10.074;2024-02-14T08:37:24;3.60;;;2.70;;
1174;SDS011;576;48.418;10.074;2024-02-14T08:39:54;5.77;;;2.40;;
1174;SDS011;576;48.418;10.074;2024-02-14T08:42:24;2.50;;;2.23;;
1174;SDS011;576;48.418;10.074;2024-02-14T08:44:52;3.47;;;2.50;;
1174;SDS011;576;48.418;10.074;2024-02-14T08:47:20;3.23;;;2.63;;
1174;SDS011;576;48.418;10.074;2024-02-14T08:49:49;2.70;;;2.00;;
1174;SDS011;576;48.418;10.074;2024-02-14T08:52:17;6.83;;;2.67;;
1174;SDS011;576;48.418;10.074;2024-02-14T08:54:46;6.80;;;2.40;;
1174;SDS011;576;48.418;10.074;2024-02-14T08:57:19;2.47;;;2.20;;
1174;SDS011;576;48.418;10.074;2024-02-14T08:59:47;2.23;;;2.03;;
1174;SDS011;576;48.418;10.074;2024-02-14T09:02:16;2.77;;;2.50;;
1174;SDS011;576;48.418;10.074;2024-02-14T09:04:44;2.50;;;2.30;;
1174;SDS011;576;48.418;10.074;2024-02-14T09:07:13;2.50;;;2.30;;
1174;SDS011;576;48.418;10.074;2024-02-14T09:09:42;3.40;;;2.60;;
1174;SDS011;576;48.418;10.074;2024-02-14T09:12:12;2.93;;;2.73;;
1174;SDS011;576;48.418;10.074;2024-02-14T09:14:42;2.77;;;2.47;;
1174;SDS011;576;48.418;10.074;2024-02-14T09:17:10;3.40;;;2.80;;
1174;SDS011;576;48.418;10.074;2024-02-14T09:19:38;2.40;;;2.20;;
1174;SDS011;576;48.418;10.074;2024-02-14T09:22:07;2.60;;;2.27;;
1174;SDS011;576;48.418;10.074;2024-02-14T09:24:35;2.43;;;1.97;;
1174;SDS011;576;48.418;10.074;2024-02-14T09:27:03;4.47;;;2.80;;
1174;SDS011;576;48.418;10.074;2024-02-14T09:29:32;3.00;;;2.47;;
1174;SDS011;576;48.418;10.074;2024-02-14T09:32:04;2.50;;;2.30;;
1174;SDS011;576;48.418;10.074;2024-02-14T09:34:33;2.63;;;2.43;;
1174;SDS011;576;48.418;10.074;2024-02-14T09:37:02;3.73;;;1.93;;
1174;SDS011;576;48.418;10.074;2024-02-14T09:39:33;2.40;;;2.20;;
1174;SDS011;576;48.418;10.074;2024-02-14T09:42:05;2.67;;;2.47;;
1174;SDS011;576;48.418;10.074;2024-02-14T09:44:36;3.13;;;2.80;;
1174;SDS011;576;48.418;10.074;2024-02-14T09:47:07;3.30;;;2.00;;
1174;SDS011;576;48.418;10.074;2024-02-14T09:49:37;2.40;;;1.60;;
1174;SDS011;576;48.418;10.074;2024-02-14T09:52:07;3.37;;;2.53;;
1174;SDS011;576;48.418;10.074;2024-02-14T09:54:38;2.60;;;2.00;;
1174;SDS011;576;48.418;10.074;2024-02-14T09:57:07;2.57;;;2.37;;
1174;SDS011;576;48.418;10.074;2024-02-14T09:59:36;2.87;;;1.97;;
1174;SDS011;576;48.418;10.074;2024-02-14T10:02:05;2.27;;;1.97;;
1174;SDS011;576;48.418;10.074;2024-02-14T10:04:36;3.37;;;1.93;;
1174;SDS011;576;48.418;10.074;2024-02-14T10:07:05;3.23;;;2.10;;
1174;SDS011;576;48.418;10.074;2024-02-14T10:09:39;2.03;;;1.93;;
1174;SDS011;576;48.418;10.074;2024-02-14T10:12:08;3.03;;;2.17;;
1174;SDS011;576;48.418;10.074;2024-02-14T10:14:37;2.63;;;2.20;;
1174;SDS011;576;48.418;10.074;2024-02-14T10:17:07;2.33;;;2.07;;
1174;SDS011;576;48.418;10.074;2024-02-14T10:19:36;2.90;;;2.60;;
1174;SDS011;576;48.418;10.074;2024-02-14T10:22:04;5.17;;;2.70;;
1174;SDS011;576;48.418;10.074;2024-02-14T10:24:34;2.33;;;2.13;;
1174;SDS011;576;48.418;10.074;2024-02-14T10:27:02;4.10;;;1.93;;
1174;SDS011;576;48.418;10.074;2024-02-14T10:29:35;3.80;;;2.03;;
1174;SDS011;576;48.418;10.074;2024-02-14T10:32:03;2.00;;;1.90;;
1174;SDS011;576;48.418;10.074;2024-02-14T10:34:33;3.00;;;2.50;;
1174;SDS011;576;48.418;10.074;2024-02-14T10:37:03;1.83;;;1.73;;
1174;SDS011;576;48.418;10.074;2024-02-14T10:39:34;2.90;;;1.57;;
1174;SDS011;576;48.418;10.074;2024-02-14T10:42:04;3.43;;;1.53;;
1174;SDS011;576;48.418;10.074;2024-02-14T10:44:34;2.03;;;1.80;;
1174;SDS011;576;48.418;10.074;2024-02-14T10:47:03;1.70;;;1.60;;
1174;SDS011;576;48.418;10.074;2024-02-14T10:49:36;2.93;;;2.20;;
1174;SDS011;576;48.418;10.074;2024-02-14T10:52:07;1.60;;;1.50;;
1174;SDS011;576;48.418;10.074;2024-02-14T10:54:36;2.60;;;1.83;;
1174;SDS011;576;48.418;10.074;2024-02-14T10:57:06;2.23;;;1.80;;
1174;SDS011;576;48.418;10.074;2024-02-14T10:59:38;2.40;;;2.20;;
1174;SDS011;576;48.418;10.074;2024-02-14T11:02:11;3.63;;;2.40;;
1174;SDS011;576;48.418;10.074;2024-02-14T11:04:42;2.97;;;2.47;;
1174;SDS011;576;48.418;10.074;2024-02-14T11:07:11;3.90;;;2.17;;
1174;SDS011;576;48.418;10.074;2024-02-14T11:09:40;2.70;;;2.37;;
1174;SDS011;576;48.418;10.074;2024-02-14T11:12:08;5.07;;;2.17;;
1174;SDS011;576;48.418;10.074;2024-02-14T11:14:41;3.13;;;2.30;;
1174;SDS011;576;48.418;10.074;2024-02-14T11:17:12;3.37;;;2.40;;
1174;SDS011;576;48.418;10.074;2024-02-14T11:19:40;3.17;;;2.40;;
1174;SDS011;576;48.418;10.074;2024-02-14T11:22:12;2.30;;;2.00;;
1174;SDS011;576;48.418;10.074;2024-02-14T11:24:40;3.30;;;2.50;;
1174;SDS011;576;48.418;10.074;2024-02-14T11:27:09;2.07;;;1.87;;
1174;SDS011;576;48.418;10.074;2024-02-14T11:29:58;3.30;;;2.10;;
1174;SDS011;576;48.418;10.074;2024-02-14T11:32:27;4.07;;;1.90;;
1174;SDS011;576;48.418;10.074;2024-02-14T11:34:58;7.07;;;2.20;;
1174;SDS011;576;48.418;10.074;2024-02-14T11:37:27;3.10;;;2.17;;
1174;SDS011;576;48.418;10.074;2024-02-14T11:39:56;4.50;;;2.60;;
1174;SDS011;576;48.418;10.074;2024-02-14T11:42:24;2.53;;;2.30;;
1174;SDS011;576;48.418;10.074;2024-02-14T11:44:54;4.47;;;2.50;;
1174;SDS011;576;48.418;10.074;2024-02-14T11:47:23;2.73;;;2.53;;
1174;SDS011;576;48.418;10.074;2024-02-14T11:49:51;2.80;;;2.20;;
1174;SDS011;576;48.418;10.074;2024-02-14T11:52:21;3.20;;;1.90;;
1174;SDS011;576;48.418;10.074;2024-02-14T11:54:53;3.37;;;2.30;;
1174;SDS011;576;48.418;10.074;2024-02-14T11:57:23;2.30;;;2.10;;
1174;SDS011;576;48.418;10.074;2024-02-14T11:59:51;6.33;;;2.50;;
1174;SDS011;576;48.418;10.074;2024-02-14T12:02:20;2.37;;;2.10;;
1174;SDS011;576;48.418;10.074;2024-02-14T12:04:49;2.07;;;1.90;;
1174;SDS011;576;48.418;10.074;2024-02-14T12:07:21;2.33;;;2.13;;
1174;SDS011;576;48.418;10.074;2024-02-14T12:09:51;3.80;;;2.40;;
1174;SDS011;576;48.418;10.074;2024-02-14T12:12:19;5.30;;;2.73;;
1174;SDS011;576;48.418;10.074;2024-02-14T12:14:51;5.40;;;2.83;;
1174;SDS011;576;48.418;10.074;2024-02-14T12:17:20;4.43;;;2.63;;
1174;SDS011;576;48.418;10.074;2024-02-14T12:19:48;3.60;;;2.33;;
1174;SDS011;576;48.418;10.074;2024-02-14T12:22:18;3.20;;;2.07;;
1174;SDS011;576;48.418;10.074;2024-02-14T12:24:49;2.80;;;2.13;;
1174;SDS011;576;48.418;10.074;2024-02-14T12:27:19;2.90;;;2.00;;
1174;SDS011;576;48.418;10.074;2024-02-14T12:29:47;2.80;;;2.60;;
1174;SDS011;576;48.418;10.074;2024-02-14T12:32:17;3.47;;;2.23;;
1174;SDS011;576;48.418;10.074;2024-02-14T12:34:45;3.27;;;2.30;;
1174;SDS011;576;48.418;10.074;2024-02-14T12:37:13;2.40;;;1.60;;
1174;SDS011;576;48.418;10.074;2024-02-14T12:39:41;2.60;;;2.17;;
1174;SDS011;576;48.418;10.074;2024-02-14T12:42:11;3.27;;;2.00;;
1174;SDS011;576;48.418;10.074;2024-02-14T12:44:39;4.63;;;2.57;;
1174;SDS011;576;48.418;10.074;2024-02-14T12:47:08;2.50;;;2.00;;
1174;SDS011;576;48.418;10.074;2024-02-14T12:49:37;5.17;;;2.00;;
1174;SDS011;576;48.418;10.074;2024-02-14T12:52:05;2.60;;;1.90;;
1174;SDS011;576;48.418;10.074;2024-02-14T12:54:33;3.10;;;1.90;;
1174;SDS011;576;48.418;10.074;2024-02-14T12:57:01;2.40;;;1.60;;
1174;SDS011;576;48.418;10.074;2024-02-14T12:59:32;1.90;;;1.80;;
1174;SDS011;576;48.418;10.074;2024-02-14T13:02:00;2.37;;;2.00;;
1174;SDS011;576;48.418;10.074;2024-02-14T13:04:29;3.63;;;2.00;;
1174;SDS011;576;48.418;10.074;2024-02-14T13:06:58;6.70;;;2.40;;
1174;SDS011;576;48.418;10.074;2024-02-14T13:09:27;3.73;;;2.03;;
1174;SDS011;576;48.418;10.074;2024-02-14T13:11:55;8.33;;;2.70;;
1174;SDS011;576;48.418;10.074;2024-02-14T13:14:23;7.07;;;2.57;;
1174;SDS011;576;48.418;10.074;2024-02-14T13:16:53;7.17;;;2.50;;
1174;SDS011;576;48.418;10.074;2024-02-14T13:19:22;5.90;;;2.37;;
1174;SDS011;576;48.418;10.074;2024-02-14T13:21:50;10.00;;;3.17;;
1174;SDS011;576;48.418;10.074;2024-02-14T13:24:20;12.43;;;2.30;;
1174;SDS011;576;48.418;10.074;2024-02-14T13:26:48;8.17;;;2.97;;
1174;SDS011;576;48.418;10.074;2024-02-14T13:29:16;13.30;;;2.50;;
1174;SDS011;576;48.418;10.074;2024-02-14T13:31:46;11.13;;;2.67;;
1174;SDS011;576;48.418;10.074;2024-02-14T13:34:17;12.93;;;3.87;;
1174;SDS011;576;48.418;10.074;2024-02-14T13:36:46;9.37;;;2.77;;
1174;SDS011;576;48.418;10.074;2024-02-14T13:39:15;11.63;;;3.23;;
1174;SDS011;576;48.418;10.074;2024-02-14T13:41:43;3.43;;;2.50;;
1174;SDS011;576;48.418;10.074;2024-02-14T13:44:12;6.40;;;2.20;;
1174;SDS011;576;48.418;10.074;2024-02-14T13:46:43;4.57;;;2.00;;
1174;SDS011;576;48.418;10.074;2024-02-14T13:49:12;6.50;;;1.90;;
1174;SDS011;576;48.418;10.074;2024-02-14T13:51:46;9.93;;;2.60;;
1174;SDS011;576;48.418;10.074;2024-02-14T13:54:14;12.50;;;2.93;;
1174;SDS011;576;48.418;10.074;2024-02-14T13:56:42;6.97;;;2.43;;
1174;SDS011;576;48.418;10.074;2024-02-14T13:59:11;6.27;;;2.03;;
1174;SDS011;576;48.418;10.074;2024-02-14T14:01:39;5.37;;;2.60;;
1174;SDS011;576;48.418;10.074;2024-02-14T14:04:07;6.57;;;2.10;;
1174;SDS011;576;48.418;10.074;2024-02-14T14:06:36;5.20;;;1.80;;
1174;SDS011;576;48.418;10.074;2024-02-14T14:09:07;4.17;;;1.90;;
1174;SDS011;576;48.418;10.074;2024-02-14T14:11:37;5.50;;;2.07;;
1174;SDS011;576;48.418;10.074;2024-02-14T14:14:05;3.17;;;1.80;;
1174;SDS011;576;48.418;10.074;2024-02-14T14:16:34;5.90;;;1.60;;
1174;SDS011;576;48.418;10.074;2024-02-14T14:19:03;3.03;;;1.63;;
1174;SDS011;576;48.418;10.074;2024-02-14T14:21:31;2.10;;;1.60;;
1174;SDS011;576;48.418;10.074;2024-02-14T14:23:59;4.43;;;2.33;;
1174;SDS011;576;48.418;10.074;2024-02-14T14:26:29;5.30;;;2.00;;
1174;SDS011;576;48.418;10.074;2024-02-14T14:28:57;4.63;;;1.87;;
1174;SDS011;576;48.418;10.074;2024-02-14T14:31:26;2.27;;;1.60;;
1174;SDS011;576;48.418;10.074;2024-02-14T14:33:56;3.87;;;1.80;;
1174;SDS011;576;48.418;10.074;2024-02-14T14:36:24;5.83;;;2.13;;
1174;SDS011;576;48.418;10.074;2024-02-14T14:38:53;4.23;;;1.80;;
1174;SDS011;576;48.418;10.074;2024-02-14T14:41:21;2.63;;;1.60;;
1174;SDS011;576;48.418;10.074;2024-02-14T14:43:51;2.23;;;1.70;;
1174;SDS011;576;48.418;10.074;2024-02-14T14:46:19;4.33;;;1.60;;
1174;SDS011;576;48.418;10.074;2024-02-14T14:48:48;1.80;;;1.20;;
1174;SDS011;576;48.418;10.074;2024-02-14T14:51:16;2.60;;;1.50;;
1174;SDS011;576;48.418;10.074;2024-02-14T14:53:44;5.57;;;2.20;;
1174;SDS011;576;48.418;10.074;2024-02-14T14:56:13;2.50;;;1.90;;
1174;SDS011;576;48.418;10.074;2024-02-14T14:58:41;2.20;;;1.33;;
1174;SDS011;576;48.418;10.074;2024-02-14T15:01:11;7.90;;;1.70;;
1174;SDS011;576;48.418;10.074;2024-02-14T15:03:40;2.97;;;1.50;;
1174;SDS011;576;48.418;10.074;2024-02-14T15:06:09;2.07;;;1.53;;
1174;SDS011;576;48.418;10.074;2024-02-14T15:08:37;2.60;;;1.70;;
1174;SDS011;576;48.418;10.074;2024-02-14T15:11:07;1.80;;;1.30;;
1174;SDS011;576;48.418;10.074;2024-02-14T15:13:35;4.70;;;1.60;;
1174;SDS011;576;48.418;10.074;2024-02-14T15:16:03;2.13;;;1.37;;
1174;SDS011;576;48.418;10.074;2024-02-14T15:18:35;1.10;;;1.10;;
1174;SDS011;576;48.418;10.074;2024-02-14T15:21:04;10.60;;;1.80;;
1174;SDS011;576;48.418;10.074;2024-02-14T15:23:33;3.10;;;1.90;;
1174;SDS011;576;48.418;10.074;2024-02-14T15:26:02;2.73;;;1.30;;